Impacts TAF Board INFO
FOR SITUATIONAL AWARENESS. NOT TO BE USED FOR FLIGHT PLANNING PURPOSES.
IDs:

KIAH - Houston/Bush Intl, TX, US

Issued at 0520 UTC 14 Dec 2017
Updated at 0628 UTC 14 Dec 2017
Potential Impact None Slight Moderate High
Time0553Z 14/07Z 14/08Z 14/09Z 14/10Z 14/11Z 14/12Z 14/13Z 14/14Z 14/15Z 14/16Z 14/17Z 14/18Z 14/19Z>>
Type OBS PRVL PRVL PRVL PRVL PRVL PRVL PRVL PRVL PRVL PRVL PRVL PRVL PRVL
VIS 10 >6 >6 >6 >6 >6 >6 >6 >6 >6 >6 >6 >6 >6
CIG 250 250 250 250 250 250 250 250 250 250 250 250 250 250
Cover OVC OVC OVC OVC OVC OVC OVC OVC OVC OVC OVC OVC OVC OVC
FltCat VFR VFR VFR VFR VFR VFR VFR VFR VFR VFR VFR VFR VFR VFR
WX -- -- -- -- -- -- -- -- -- -- -- -- -- --
WDir VRB 210 210 210 210 210 210 210 210 210 210 210 210 210
WSpd 0 4 4 4 4 4 4 4 4 4 4 4 4 4
WGst -- -- -- -- -- -- -- -- -- -- -- -- -- --

Raw TAF
KIAH 140520Z 1406/1512 21004KT P6SM OVC250
  FM142300 35007KT P6SM SCT050 OVC120


Raw METAR
KIAH 140553Z 00000KT 10SM OVC250 08/04 A2996 RMK AO2 SLP146 T00830039 10117 20072 401500006 58010
KIAH 140453Z 21004KT 10SM BKN250 09/04 A2998 RMK AO2 SLP154 T00890039
KIAH 140353Z 00000KT 10SM OVC250 07/04 A2998 RMK AO2 SLP153 T00720039

METAR Board
Radar Display
Forecast Discussion

FOR SITUATIONAL AWARENESS. NOT TO BE USED FOR FLIGHT PLANNING PURPOSES.